createdAt,value
2018-12-26T00:00:03.450Z,23.05
2018-12-26T00:02:31.869Z,18.82
2018-12-26T00:05:00.292Z,22.17
2018-12-26T00:07:28.724Z,20.65
2018-12-26T00:09:57.157Z,20.05
2018-12-26T00:12:25.607Z,19.75
2018-12-26T00:14:54.024Z,20.35
2018-12-26T00:17:22.521Z,21.30
2018-12-26T00:19:51.063Z,20.05
2018-12-26T00:22:19.541Z,23.15
2018-12-26T00:24:47.964Z,21.82
2018-12-26T00:27:16.403Z,20.65
2018-12-26T00:29:44.844Z,19.32
2018-12-26T00:32:13.284Z,21.73
2018-12-26T00:34:41.693Z,20.15
2018-12-26T00:37:10.109Z,21.70
2018-12-26T00:39:38.890Z,18.98
2018-12-26T00:42:07.337Z,21.70
2018-12-26T00:44:35.842Z,21.62
2018-12-26T00:47:04.290Z,19.60
2018-12-26T00:49:33.028Z,21.70
2018-12-26T00:52:01.481Z,19.15
2018-12-26T00:54:29.974Z,20.90
2018-12-26T00:56:58.520Z,22.60
2018-12-26T00:59:26.931Z,20.80
2018-12-26T01:01:55.359Z,20.60
2018-12-26T01:04:23.818Z,20.97
2018-12-26T01:06:52.241Z,22.85
2018-12-26T01:09:21.000Z,19.67
2018-12-26T01:11:49.408Z,19.48
2018-12-26T01:14:17.858Z,19.60
2018-12-26T01:16:46.264Z,22.17
2018-12-26T01:19:14.684Z,19.90
2018-12-26T01:21:43.105Z,18.98
2018-12-26T01:24:11.542Z,21.75
2018-12-26T01:26:39.969Z,21.50
2018-12-26T01:29:08.629Z,20.65
2018-12-26T01:31:37.090Z,17.85
2018-12-26T01:34:05.492Z,19.70
2018-12-26T01:36:33.947Z,16.80
2018-12-26T01:39:02.356Z,15.78
2018-12-26T01:41:30.809Z,16.90
2018-12-26T01:43:59.204Z,13.88
2018-12-26T01:46:27.681Z,15.03
2018-12-26T01:48:56.076Z,13.58
2018-12-26T01:51:24.862Z,13.80
2018-12-26T01:53:53.265Z,13.28
2018-12-26T01:56:27.873Z,12.60
2018-12-26T01:58:51.865Z,13.83
2018-12-26T02:01:20.338Z,15.03
2018-12-26T02:03:48.790Z,14.03
2018-12-26T02:06:17.181Z,14.63
2018-12-26T02:08:45.622Z,13.78
2018-12-26T02:11:14.033Z,13.83
2018-12-26T02:13:42.459Z,14.38
2018-12-26T02:16:10.945Z,14.55
2018-12-26T02:18:39.380Z,16.67
2018-12-26T02:21:07.810Z,15.78
2018-12-26T02:23:36.234Z,13.50
2018-12-26T02:26:04.669Z,13.10
2018-12-26T02:28:33.093Z,13.43
2018-12-26T02:31:01.501Z,13.83
2018-12-26T02:33:29.960Z,15.65
2018-12-26T02:35:58.371Z,14.83
2018-12-26T02:38:26.815Z,14.95
2018-12-26T02:40:55.218Z,14.25
2018-12-26T02:43:23.674Z,14.58
2018-12-26T02:45:52.085Z,17.20
2018-12-26T02:48:20.512Z,17.65
2018-12-26T02:50:49.197Z,14.98
2018-12-26T02:53:17.641Z,14.83
2018-12-26T02:55:46.056Z,14.43
2018-12-26T02:58:14.488Z,14.07
2018-12-26T03:00:42.918Z,13.65
2018-12-26T03:03:11.681Z,14.18
2018-12-26T03:05:40.098Z,16.37
2018-12-26T03:08:08.522Z,14.50
2018-12-26T03:10:36.962Z,11.60
2018-12-26T03:13:05.377Z,16.40
2018-12-26T03:15:33.796Z,13.03
2018-12-26T03:18:02.221Z,14.45
2018-12-26T03:20:30.639Z,14.98
2018-12-26T03:22:59.052Z,15.30
2018-12-26T03:25:27.471Z,15.03
2018-12-26T03:27:55.924Z,16.37
2018-12-26T03:30:24.423Z,17.07
2018-12-26T03:32:52.867Z,15.70
2018-12-26T03:35:21.436Z,15.35
2018-12-26T03:37:49.836Z,16.52
2018-12-26T03:40:18.259Z,16.73
2018-12-26T03:42:46.673Z,16.67
2018-12-26T03:45:15.494Z,16.15
2018-12-26T03:47:44.550Z,16.17
2018-12-26T03:50:13.255Z,17.02
2018-12-26T03:52:41.937Z,16.27
2018-12-26T03:55:10.398Z,14.68
2018-12-26T03:57:38.870Z,16.00
2018-12-26T04:00:09.336Z,16.57
2018-12-26T04:02:37.825Z,16.12
2018-12-26T04:05:06.251Z,13.90
2018-12-26T04:07:34.897Z,17.10
2018-12-26T04:10:03.416Z,17.23
2018-12-26T04:12:32.051Z,14.87
2018-12-26T04:15:00.543Z,16.42
2018-12-26T04:17:29.029Z,15.05
2018-12-26T04:19:57.918Z,15.48
2018-12-26T04:22:27.093Z,14.78
2018-12-26T04:24:55.784Z,15.70
2018-12-26T04:27:24.225Z,17.55
2018-12-26T04:29:52.655Z,14.80
2018-12-26T04:32:21.063Z,15.40
2018-12-26T04:34:49.490Z,16.48
2018-12-26T04:37:17.968Z,16.57
2018-12-26T04:39:46.414Z,17.10
2018-12-26T04:42:14.864Z,15.15
2018-12-26T04:44:43.318Z,13.60
2018-12-26T04:47:11.820Z,14.43
2018-12-26T04:49:40.258Z,14.73
2018-12-26T04:52:08.719Z,15.23
2018-12-26T04:54:37.256Z,13.62
2018-12-26T04:57:05.701Z,13.72
2018-12-26T04:59:34.110Z,14.70
2018-12-26T05:02:02.529Z,13.53
2018-12-26T05:04:30.965Z,14.90
2018-12-26T05:06:59.400Z,14.75
2018-12-26T05:09:27.795Z,14.60
2018-12-26T05:11:56.231Z,14.50
2018-12-26T05:14:24.652Z,15.58
2018-12-26T05:16:53.068Z,14.65
2018-12-26T05:19:21.468Z,14.93
2018-12-26T05:21:49.897Z,13.65
2018-12-26T05:24:18.315Z,15.15
2018-12-26T05:26:46.767Z,14.50
2018-12-26T05:29:15.193Z,16.35
2018-12-26T05:31:43.626Z,15.80
2018-12-26T05:34:12.041Z,15.00
2018-12-26T05:36:40.465Z,16.55
2018-12-26T05:39:08.868Z,16.25
2018-12-26T05:41:37.621Z,16.40
2018-12-26T05:44:06.148Z,14.75
2018-12-26T05:46:34.597Z,13.22
2018-12-26T05:49:22.617Z,15.72
2018-12-26T05:51:51.074Z,13.28
2018-12-26T05:54:19.549Z,14.95
2018-12-26T05:56:47.997Z,14.55
2018-12-26T05:59:16.450Z,15.23
2018-12-26T06:01:44.962Z,14.60
2018-12-26T06:04:13.653Z,15.30
2018-12-26T06:06:42.765Z,14.98
2018-12-26T06:09:11.178Z,14.13
2018-12-26T06:11:40.587Z,14.03
2018-12-26T06:14:09.041Z,15.23
2018-12-26T06:16:37.511Z,14.50
2018-12-26T06:19:06.034Z,14.45
2018-12-26T06:21:34.498Z,15.20
2018-12-26T06:24:02.912Z,17.70
2018-12-26T06:26:31.344Z,12.75
2018-12-26T06:28:59.777Z,15.68
2018-12-26T06:31:28.215Z,13.98
2018-12-26T06:33:56.602Z,15.75
2018-12-26T06:36:24.997Z,14.25
2018-12-26T06:38:53.423Z,13.93
2018-12-26T06:41:21.840Z,14.35
2018-12-26T06:43:50.549Z,13.05
2018-12-26T06:46:18.949Z,16.27
2018-12-26T06:48:47.390Z,15.00
2018-12-26T06:51:15.868Z,18.02
2018-12-26T06:53:44.366Z,15.78
2018-12-26T06:56:13.137Z,15.25
2018-12-26T06:58:41.627Z,14.75
2018-12-26T07:01:10.032Z,13.75
2018-12-26T07:03:38.899Z,14.73
2018-12-26T07:06:07.379Z,15.60
2018-12-26T07:08:35.808Z,16.10
2018-12-26T07:11:04.221Z,18.15
2018-12-26T07:13:32.674Z,17.75
2018-12-26T07:16:01.086Z,16.75
2018-12-26T07:18:29.538Z,18.30
2018-12-26T07:20:57.940Z,17.05
2018-12-26T07:23:26.388Z,14.70
2018-12-26T07:25:54.803Z,18.07
2018-12-26T07:28:23.595Z,17.07
2018-12-26T07:30:52.052Z,16.05
2018-12-26T07:33:20.802Z,16.57
2018-12-26T07:35:49.313Z,16.60
2018-12-26T07:38:17.816Z,16.65
2018-12-26T07:40:46.259Z,15.25
2018-12-26T07:43:14.685Z,17.00
2018-12-26T07:45:43.142Z,14.45
2018-12-26T07:48:12.069Z,15.50
2018-12-26T07:50:40.507Z,17.45
2018-12-26T07:53:09.019Z,15.95
2018-12-26T07:55:37.469Z,15.93
2018-12-26T07:58:05.906Z,16.95
2018-12-26T08:00:34.422Z,17.45
2018-12-26T08:03:02.866Z,16.42
2018-12-26T08:05:31.302Z,14.87
2018-12-26T08:08:00.030Z,16.10
2018-12-26T08:10:30.046Z,14.60
2018-12-26T08:12:58.532Z,15.13
2018-12-26T08:15:26.954Z,16.07
2018-12-26T08:17:55.687Z,16.30
2018-12-26T08:20:24.128Z,17.85
2018-12-26T08:22:52.567Z,15.45
2018-12-26T08:25:20.978Z,17.12
2018-12-26T08:27:49.422Z,17.75
2018-12-26T08:30:17.836Z,16.77
2018-12-26T08:32:46.278Z,17.00
2018-12-26T08:35:14.906Z,16.00
2018-12-26T08:37:44.722Z,16.52
2018-12-26T08:40:13.166Z,17.25
2018-12-26T08:42:41.613Z,16.10
2018-12-26T08:45:10.113Z,20.65
2018-12-26T08:47:38.535Z,16.93
2018-12-26T08:50:08.625Z,17.73
2018-12-26T08:52:37.067Z,14.87
2018-12-26T08:55:05.525Z,16.35
2018-12-26T08:57:33.944Z,15.03
2018-12-26T09:00:02.458Z,14.80
2018-12-26T09:02:30.972Z,15.88
2018-12-26T09:04:59.462Z,15.10
2018-12-26T09:07:27.981Z,14.95
2018-12-26T09:09:56.553Z,15.50
2018-12-26T09:12:25.319Z,13.50
2018-12-26T09:14:53.730Z,16.32
2018-12-26T09:17:22.173Z,15.98
2018-12-26T09:19:50.609Z,17.17
2018-12-26T09:22:19.052Z,16.82
2018-12-26T09:24:47.485Z,14.78
2018-12-26T09:27:16.028Z,16.12
2018-12-26T09:29:44.448Z,15.55
2018-12-26T09:32:13.162Z,14.00
2018-12-26T09:34:41.633Z,16.52
2018-12-26T09:37:10.045Z,15.90
2018-12-26T09:39:38.502Z,18.75
2018-12-26T09:42:06.968Z,17.85
2018-12-26T09:44:35.433Z,17.67
2018-12-26T09:47:03.919Z,17.37
2018-12-26T09:49:32.333Z,17.57
2018-12-26T09:52:00.840Z,14.95
2018-12-26T09:54:29.289Z,16.48
2018-12-26T09:56:57.735Z,15.80
2018-12-26T09:59:26.274Z,16.77
2018-12-26T10:01:54.717Z,14.87
2018-12-26T10:04:23.146Z,15.88
2018-12-26T10:06:51.570Z,14.70
2018-12-26T10:09:20.154Z,18.37
2018-12-26T10:11:48.586Z,15.78
2018-12-26T10:14:16.990Z,16.17
2018-12-26T10:16:45.853Z,15.13
2018-12-26T10:19:14.326Z,16.25
2018-12-26T10:21:42.799Z,17.32
2018-12-26T10:24:11.234Z,16.05
2018-12-26T10:26:39.684Z,17.48
2018-12-26T10:29:08.172Z,16.23
2018-12-26T10:31:36.660Z,15.90
2018-12-26T10:34:05.086Z,17.48
2018-12-26T10:36:33.596Z,14.80
2018-12-26T10:39:02.666Z,15.50
2018-12-26T10:41:32.049Z,17.00
2018-12-26T10:44:00.448Z,16.55
2018-12-26T10:46:29.165Z,17.55
2018-12-26T10:48:57.582Z,15.85
2018-12-26T10:51:26.004Z,16.67
2018-12-26T10:53:54.415Z,16.42
2018-12-26T10:56:22.865Z,17.20
2018-12-26T10:58:51.349Z,17.20
2018-12-26T11:01:19.952Z,17.90
2018-12-26T11:03:48.727Z,20.32
2018-12-26T11:06:17.690Z,15.35
2018-12-26T11:08:46.183Z,17.25
2018-12-26T11:11:16.626Z,15.63
2018-12-26T11:13:45.136Z,14.58
2018-12-26T11:16:14.619Z,13.70
2018-12-26T11:18:43.487Z,14.45
2018-12-26T11:21:13.022Z,13.20
2018-12-26T11:23:44.516Z,15.43
2018-12-26T11:26:13.131Z,16.77
2018-12-26T11:28:41.993Z,15.68
2018-12-26T11:31:10.537Z,15.00
2018-12-26T11:33:39.211Z,14.28
2018-12-26T11:36:07.740Z,15.35
2018-12-26T11:38:37.298Z,14.93
2018-12-26T11:41:05.826Z,27.20
2018-12-26T11:43:35.119Z,19.87
2018-12-26T11:46:03.616Z,15.65
2018-12-26T11:48:35.283Z,13.30
2018-12-26T11:51:04.423Z,14.73
2018-12-26T11:53:33.044Z,14.65
2018-12-26T11:56:01.456Z,16.65
2018-12-26T11:58:30.168Z,16.55
2018-12-26T12:00:58.590Z,15.23
2018-12-26T12:03:27.002Z,15.80
2018-12-26T12:05:55.435Z,14.40
2018-12-26T12:08:23.916Z,14.55
2018-12-26T12:10:52.385Z,16.15
2018-12-26T12:13:20.820Z,15.30
2018-12-26T12:15:49.213Z,15.80
2018-12-26T12:18:23.681Z,13.98
2018-12-26T12:20:52.095Z,14.70
2018-12-26T12:23:20.768Z,17.45
2018-12-26T12:25:49.173Z,16.07
2018-12-26T12:28:17.584Z,15.03
2018-12-26T12:30:46.010Z,16.32
2018-12-26T12:33:14.424Z,15.25
2018-12-26T12:35:42.925Z,16.40
2018-12-26T12:38:11.394Z,14.20
2018-12-26T12:40:39.900Z,14.75
2018-12-26T12:43:08.423Z,13.90
2018-12-26T12:45:36.916Z,15.83
2018-12-26T12:48:05.359Z,15.55
2018-12-26T12:50:33.858Z,15.08
2018-12-26T12:53:02.252Z,14.55
2018-12-26T12:55:30.677Z,15.15
2018-12-26T12:57:59.132Z,14.38
2018-12-26T13:00:27.609Z,15.05
2018-12-26T13:03:00.354Z,16.45
2018-12-26T13:05:26.198Z,15.58
2018-12-26T13:07:54.630Z,14.38
2018-12-26T13:10:23.027Z,15.03
2018-12-26T13:12:51.485Z,15.10
2018-12-26T13:15:19.977Z,14.80
2018-12-26T13:17:48.402Z,17.60
2018-12-26T13:20:16.808Z,14.58
2018-12-26T13:22:45.273Z,13.88
2018-12-26T13:25:13.729Z,15.45
2018-12-26T13:27:42.125Z,16.10
2018-12-26T13:30:10.942Z,14.78
2018-12-26T13:32:39.737Z,14.45
2018-12-26T13:35:08.320Z,15.32
2018-12-26T13:37:43.209Z,14.75
2018-12-26T13:40:11.618Z,15.30
2018-12-26T13:42:40.145Z,16.42
2018-12-26T13:45:08.653Z,15.25
2018-12-26T13:47:37.058Z,15.40
2018-12-26T13:50:06.712Z,14.68
2018-12-26T13:52:35.110Z,15.63
2018-12-26T13:55:04.698Z,16.15
2018-12-26T13:57:33.100Z,14.78
2018-12-26T14:00:02.568Z,14.50
2018-12-26T14:02:31.284Z,15.40
2018-12-26T14:04:59.704Z,15.32
2018-12-26T14:07:28.121Z,13.55
2018-12-26T14:09:56.528Z,14.40
2018-12-26T14:12:24.944Z,15.80
2018-12-26T14:14:53.456Z,13.83
2018-12-26T14:17:22.235Z,16.32
2018-12-26T14:19:50.654Z,15.08
2018-12-26T14:22:19.053Z,15.98
2018-12-26T14:24:47.477Z,15.25
2018-12-26T14:27:15.908Z,16.75
2018-12-26T14:29:44.328Z,15.70
2018-12-26T14:32:12.833Z,15.00
2018-12-26T14:34:43.191Z,14.85
2018-12-26T14:37:11.388Z,14.55
2018-12-26T14:39:39.784Z,14.45
2018-12-26T14:42:08.198Z,15.03
2018-12-26T14:44:36.620Z,16.35
2018-12-26T14:47:05.068Z,15.35
2018-12-26T14:49:33.520Z,15.48
2018-12-26T14:52:01.962Z,13.40
2018-12-26T14:54:30.358Z,14.55
2018-12-26T14:56:58.774Z,15.58
2018-12-26T14:59:27.169Z,16.23
2018-12-26T15:01:55.573Z,14.58
2018-12-26T15:04:24.010Z,13.18
2018-12-26T15:06:52.445Z,17.00
2018-12-26T15:09:21.204Z,15.75
2018-12-26T15:11:49.651Z,16.93
2018-12-26T15:14:18.053Z,17.82
2018-12-26T15:16:46.472Z,17.85
2018-12-26T15:19:16.342Z,14.58
2018-12-26T15:21:44.784Z,16.07
2018-12-26T15:24:13.184Z,16.97
2018-12-26T15:26:41.629Z,16.23
2018-12-26T15:29:10.027Z,15.93
2018-12-26T15:31:38.429Z,15.65
2018-12-26T15:34:06.827Z,16.57
2018-12-26T15:36:35.264Z,16.35
2018-12-26T15:39:05.295Z,17.15
2018-12-26T15:41:35.355Z,14.83
2018-12-26T15:44:04.001Z,16.67
2018-12-26T15:46:32.397Z,15.68
2018-12-26T15:49:00.858Z,16.05
2018-12-26T15:51:30.050Z,15.93
2018-12-26T15:53:58.765Z,17.57
2018-12-26T15:56:27.204Z,16.42
2018-12-26T15:58:55.621Z,17.07
2018-12-26T16:01:24.012Z,17.52
2018-12-26T16:03:52.465Z,16.80
2018-12-26T16:06:20.851Z,17.37
2018-12-26T16:08:49.285Z,18.27
2018-12-26T16:11:17.679Z,16.82
2018-12-26T16:13:46.093Z,17.90
2018-12-26T16:16:14.508Z,20.65
2018-12-26T16:18:42.916Z,19.15
2018-12-26T16:21:11.369Z,18.17
2018-12-26T16:23:39.775Z,20.05
2018-12-26T16:26:08.512Z,19.67
2018-12-26T16:28:36.946Z,26.23
2018-12-26T16:31:05.342Z,23.22
2018-12-26T16:33:34.297Z,19.12
2018-12-26T16:36:02.725Z,20.17
2018-12-26T16:38:31.435Z,19.00
2018-12-26T16:40:59.867Z,18.80
2018-12-26T16:43:28.350Z,18.05
2018-12-26T16:45:56.752Z,19.23
2018-12-26T16:48:25.156Z,18.62
2018-12-26T16:50:53.555Z,17.85
2018-12-26T16:53:21.994Z,19.45
2018-12-26T16:55:50.403Z,23.07
2018-12-26T16:58:19.003Z,18.85
2018-12-26T17:00:54.822Z,16.40
2018-12-26T17:03:17.534Z,19.82
2018-12-26T17:05:45.951Z,18.95
2018-12-26T17:08:14.364Z,18.60
2018-12-26T17:10:43.049Z,19.37
2018-12-26T17:13:11.493Z,19.60
2018-12-26T17:15:39.895Z,19.75
2018-12-26T17:18:08.316Z,21.48
2018-12-26T17:20:36.746Z,19.95
2018-12-26T17:23:05.152Z,20.37
2018-12-26T17:25:33.585Z,18.98
2018-12-26T17:28:02.321Z,20.48
2018-12-26T17:30:30.808Z,21.00
2018-12-26T17:33:00.807Z,20.20
2018-12-26T17:35:29.520Z,21.23
2018-12-26T17:37:57.948Z,20.40
2018-12-26T17:40:26.341Z,21.77
2018-12-26T17:42:54.777Z,19.67
2018-12-26T17:45:23.441Z,21.20
2018-12-26T17:47:51.921Z,23.50
2018-12-26T17:50:40.171Z,23.27
2018-12-26T17:53:11.978Z,22.13
2018-12-26T17:56:00.248Z,19.98
2018-12-26T17:58:34.859Z,25.65
2018-12-26T18:01:30.280Z,24.77
2018-12-26T18:03:58.733Z,23.32
2018-12-26T18:06:27.216Z,23.25
2018-12-26T18:08:55.633Z,20.88
2018-12-26T18:11:24.075Z,21.87
2018-12-26T18:13:52.486Z,22.62
2018-12-26T18:16:20.887Z,22.17
2018-12-26T18:18:49.322Z,22.17
2018-12-26T18:21:17.732Z,22.32
2018-12-26T18:23:46.189Z,25.75
2018-12-26T18:26:14.623Z,26.30
2018-12-26T18:28:43.045Z,24.63
2018-12-26T18:31:11.554Z,23.40
2018-12-26T18:33:39.984Z,24.60
2018-12-26T18:36:08.390Z,21.02
2018-12-26T18:38:36.858Z,20.57
2018-12-26T18:41:05.264Z,23.22
2018-12-26T18:43:33.721Z,19.77
2018-12-26T18:46:02.306Z,21.55
2018-12-26T18:48:30.805Z,25.72
2018-12-26T18:50:59.222Z,23.12
2018-12-26T18:53:27.713Z,22.35
2018-12-26T18:55:56.409Z,19.70
2018-12-26T18:58:24.867Z,20.32
2018-12-26T19:00:53.336Z,24.10
2018-12-26T19:03:21.857Z,19.05
2018-12-26T19:05:50.261Z,20.27
2018-12-26T19:08:18.743Z,20.80
2018-12-26T19:10:47.222Z,18.70
2018-12-26T19:13:15.668Z,16.70
2018-12-26T19:15:44.088Z,17.62
2018-12-26T19:18:12.497Z,18.25
2018-12-26T19:20:40.941Z,18.98
2018-12-26T19:23:09.353Z,16.82
2018-12-26T19:25:37.825Z,16.40
2018-12-26T19:28:06.225Z,16.30
2018-12-26T19:30:34.974Z,17.35
2018-12-26T19:33:03.372Z,18.85
2018-12-26T19:35:31.831Z,19.70
2018-12-26T19:38:00.241Z,18.45
2018-12-26T19:40:28.711Z,18.23
2018-12-26T19:42:57.206Z,18.52
2018-12-26T19:45:25.662Z,18.25
2018-12-26T19:47:54.330Z,16.87
2018-12-26T19:50:22.788Z,18.35
2018-12-26T19:52:51.211Z,15.45
2018-12-26T19:55:19.650Z,14.30
2018-12-26T19:57:48.049Z,13.80
2018-12-26T20:00:16.508Z,15.20
2018-12-26T20:02:45.009Z,14.23
2018-12-26T20:05:13.454Z,15.65
2018-12-26T20:07:41.878Z,16.50
2018-12-26T20:10:11.085Z,16.55
2018-12-26T20:12:39.510Z,15.03
2018-12-26T20:15:08.033Z,17.73
2018-12-26T20:17:36.438Z,19.80
2018-12-26T20:20:07.028Z,14.55
2018-12-26T20:22:35.440Z,18.00
2018-12-26T20:25:03.990Z,16.42
2018-12-26T20:27:32.425Z,16.57
2018-12-26T20:30:00.927Z,15.28
2018-12-26T20:32:29.453Z,17.87
2018-12-26T20:34:57.954Z,18.48
2018-12-26T20:37:26.418Z,19.73
2018-12-26T20:39:55.130Z,17.05
2018-12-26T20:42:23.562Z,19.23
2018-12-26T20:44:52.022Z,17.30
2018-12-26T20:47:20.431Z,19.70
2018-12-26T20:49:48.892Z,15.93
2018-12-26T20:52:17.297Z,15.58
2018-12-26T20:54:45.734Z,16.07
2018-12-26T20:57:14.223Z,14.83
2018-12-26T20:59:42.882Z,17.05
2018-12-26T21:02:11.418Z,16.30
2018-12-26T21:04:39.815Z,17.12
2018-12-26T21:07:08.306Z,17.27
2018-12-26T21:09:36.705Z,15.70
2018-12-26T21:12:05.121Z,16.55
2018-12-26T21:14:33.564Z,15.63
2018-12-26T21:17:01.963Z,15.45
2018-12-26T21:19:30.750Z,15.78
2018-12-26T21:21:59.149Z,17.12
2018-12-26T21:24:27.568Z,14.78
2018-12-26T21:26:56.083Z,17.95
2018-12-26T21:29:24.492Z,15.80
2018-12-26T21:31:52.993Z,17.40
2018-12-26T21:34:21.416Z,15.72
2018-12-26T21:36:49.801Z,15.10
2018-12-26T21:39:18.232Z,15.50
2018-12-26T21:41:46.644Z,13.80
2018-12-26T21:44:15.056Z,13.53
2018-12-26T21:46:43.762Z,12.65
2018-12-26T21:49:12.195Z,14.35
2018-12-26T21:51:40.596Z,15.72
2018-12-26T21:54:09.022Z,16.65
2018-12-26T21:56:37.466Z,16.07
2018-12-26T21:59:05.864Z,17.30
2018-12-26T22:01:34.639Z,15.50
2018-12-26T22:04:03.346Z,15.18
2018-12-26T22:06:31.744Z,15.88
2018-12-26T22:09:00.189Z,14.55
2018-12-26T22:11:28.588Z,14.78
2018-12-26T22:13:56.996Z,14.47
2018-12-26T22:16:25.738Z,15.35
2018-12-26T22:18:54.153Z,15.78
2018-12-26T22:21:22.588Z,17.70
2018-12-26T22:23:50.989Z,14.10
2018-12-26T22:26:19.410Z,15.00
2018-12-26T22:28:47.858Z,16.30
2018-12-26T22:31:16.301Z,16.85
2018-12-26T22:33:44.706Z,18.50
2018-12-26T22:36:13.150Z,16.85
2018-12-26T22:38:41.589Z,17.60
2018-12-26T22:41:09.990Z,16.65
2018-12-26T22:43:38.729Z,16.85
2018-12-26T22:46:07.152Z,18.25
2018-12-26T22:48:35.556Z,19.27
2018-12-26T22:51:04.031Z,18.75
2018-12-26T22:53:32.464Z,20.05
2018-12-26T22:56:01.253Z,19.85
2018-12-26T22:58:29.653Z,20.45
2018-12-26T23:00:58.113Z,18.48
2018-12-26T23:03:26.541Z,19.05
2018-12-26T23:05:54.960Z,17.02
2018-12-26T23:08:23.408Z,16.45
2018-12-26T23:10:51.841Z,16.57
2018-12-26T23:13:20.279Z,17.17
2018-12-26T23:15:48.719Z,18.25
2018-12-26T23:18:17.118Z,19.52
2018-12-26T23:20:45.550Z,16.93
2018-12-26T23:23:13.998Z,18.37
2018-12-26T23:25:42.750Z,16.75
2018-12-26T23:28:11.167Z,15.63
2018-12-26T23:30:39.573Z,19.50
2018-12-26T23:33:07.976Z,18.82
2018-12-26T23:35:36.406Z,18.55
2018-12-26T23:38:04.809Z,16.95
2018-12-26T23:40:33.225Z,17.80
2018-12-26T23:43:01.625Z,17.37
2018-12-26T23:45:30.044Z,17.50
2018-12-26T23:47:58.775Z,16.05
2018-12-26T23:50:27.177Z,17.87
2018-12-26T23:52:55.611Z,17.75
2018-12-26T23:55:43.406Z,15.60
2018-12-26T23:58:11.894Z,16.20
